AirNav   Everest Fuels
 
 1572 users online  

9F9 Sycamore Strip Airport
Fort Worth, Texas, USA

GOING TO FORT WORTH?


FAA INFORMATION EFFECTIVE 20 MAY 2021

Location

FAA Identifier: 9F9
Lat/Long: 32-37-37.3000N 097-21-14.4250W
32-37.621667N 097-21.240417W
32.6270278,-97.3540069
(estimated)
Elevation: 762 ft. / 232 m (estimated)
Variation: 07E (1985)
From city: 8 miles S of FORT WORTH, TX
Time zone: UTC -5 (UTC -6 during Standard Time)
Zip code: 76134

Airport Operations

Airport use: Open to the public
Activation date: 02/1967
Control tower: no
ARTCC: FORT WORTH CENTER
FSS: FORT WORTH FLIGHT SERVICE STATION
NOTAMs facility: FTW (NOTAM-D service available)
Attendance: 0900-1700
Pattern altitude: 1562 ft. MSL
Wind indicator: yes
Segmented circle: yes
Lights: LIRL RWY 17/35 CALL AHEAD, 817-293-0510 M-F 09:00-17:00.
Landing fee: yes, 5 DOLLAR LNDG FEE FOR ALL TRANSIENT ACFT.

Airport Communications

CTAF/UNICOM: 122.8
WX AWOS-3 at FWS (4 nm SE): 120.025 (817-426-4172)
WX ASOS at FTW (12 nm N): PHONE 817-740-3346
WX ASOS at GKY (13 nm E): 127.375 (817-557-0251)
WX AWOS-3P at GPM (16 nm E): 118.475 (972-606-1433)
WX AWOS-3 at CPT (17 nm S): 119.525 (817-641-4135)

Nearby radio navigation aids

VOR radial/distance  VOR name  Freq  Var
FUZr203/18.0RANGER VORTAC115.7006E
TTTr221/21.5MAVERICK VOR/DME113.1006E
CVEr229/27.7COWBOY VOR/DME116.2006E
MQPr091/33.0MILLSAP VORTAC117.7009E

Airport Services

Fuel available: 100LL
Parking: tiedowns
Airframe service: MINOR
Powerplant service: MINOR
Bottled oxygen: NONE
Bulk oxygen: NONE

Runway Information

Runway 17/35

Dimensions: 3375 x 30 ft. / 1029 x 9 m
Surface: concrete, in excellent condition
Runway edge lights: non-standard
NSTD LIRL - SINGLE WHITE THLD LGT EACH SIDE, NSTD 15 FT FM RWY EDGE. 2766 FT USBL AT NIGHT. RWY 35 THLD RELCTD 609 FT AT NIGHT.
RUNWAY 17  RUNWAY 35
Latitude: 32-37.900000N32-37.343333N
Longitude: 097-21.230833W097-21.250000W
Elevation: 760.0 ft.762.0 ft.
Traffic pattern: rightleft
Runway heading: 175 magnetic, 182 true355 magnetic, 002 true
Displaced threshold: no175 ft.
Markings: basic, in good conditionbasic, in good condition
Obstructions: 30 ft. pole, 201 ft. from runway, 123 ft. right of centerline
RR & PLINE PARALLEL TO RWY WEST SIDE.
25 ft. rr, 201 ft. from runway, 100 ft. left of centerline
25 FT RR, 0-199 FT DSTC, 100 FT L, 15 FT RD, 90 FT DSTC, 0 FT BOTH, 12 FT BLDG, 55 FT DSTC, 55 FT DSTC, 53 FT R.

Airport Ownership and Management from official FAA records

Ownership: Privately-owned
Owner: CONNIE AND RON GYURE
2300 CUMMINGHAM STREET
FORT WORTH, TX 76134
Phone 817-293-0510
Manager: CONNIE AND RON GYURE
2300 CUNNINGHAM ST
FORT WORTH, TX 76134
Phone 817-293-0510

Airport Operational Statistics

Aircraft based on the field: 25
Single engine airplanes: 22
Multi engine airplanes: 3
    
Aircraft operations: avg 77/month *
98% local general aviation
2% transient general aviation
* for 12-month period ending 16 April 2019

Additional Remarks

RWY 17/35 7 FT WALL 76 FT EAST OF CNTRLN PARALLEL TO RWY 730 FT N END OF RWY.
ARPT CLSD TO TSNT ACFT EXCP 2 HRS PPR CALL 817-293-0510.
FOR CD CTC REGIONAL APCH AT 972-615-2799.
WINDSOCK MAY BE UNREL DUE TO PROXIMITY OF TREES.

Instrument Procedures

There are no published instrument procedures at 9F9.

Some nearby airports with instrument procedures:

KFWS - Fort Worth Spinks Airport (4 nm SE)
KNFW - Fort Worth Naval Air Station JRB (Carswell Field) Airport (10 nm NW)
KFTW - Fort Worth Meacham International Airport (12 nm N)
50F - Bourland Field Airport (12 nm W)
KGKY - Arlington Municipal Airport (13 nm E)
KGPM - Grand Prairie Municipal Airport (16 nm E)
KCPT - Cleburne Regional Airport (17 nm S)
KWEA - Parker County Airport (18 nm NW)
 
Loc | Ops | Rwys | IFR | FBO | Links
Com | Nav | Svcs | Stats | Notes

City of Fort Worth
 
Area around 9F9 (Sycamore Strip Airport)
 
Road maps at: MapQuest Bing Google
 
Aerial photo
WARNING: Photo may not be current or correct
Aerial photo of 9F9 (Sycamore Strip Airport)
Photo by Bill Richardson
Photo taken 08-Sep-2013
looking south.

Do you have a better or more recent aerial photo of Sycamore Strip Airport that you would like to share? If so, please send us your photo.

 
Sectional chart

 
Airport distance calculator
Flying to Sycamore Strip Airport? Find the distance to fly.

From to 9F9

Sunrise and sunset
Times for 14-Jun-2021
 Local
(UTC-5)
 Zulu
(UTC)
Morning civil twilight05:5410:54
Sunrise06:2211:22
Sunset20:3701:37
Evening civil twilight21:0602:06

Current date and time
Zulu (UTC)  14-Jun-2021 20:58:19
Local (UTC-5)  14-Jun-2021 15:58:19
 
METAR
KFWS 
5nm SE 
142046Z 26006KT 10SM SCT060 29/19 A2999
KNFW 
10nm NW 
142052Z 06009KT 10SM SCT049CB BKN080 BKN120 36/24 A2996 RMK AO2 TSB05B13E49 SLP130 OCNL LTG DSNT SE CB 16 SE MOV S T03560239 56014 VISNO S $
KFTW 
12nm N 
141953Z 02011KT 10SM FEW047 34/24 A2996 RMK AO2 LTG DSNT SE-SW SLP134 T03440239
KGKY 
13nm E 
142053Z 29017G25KT 10SM -TSRA SCT050 SCT070 BKN085 31/20 A2997 RMK AO2 LTG DSNT SW AND W RAB53 TSB33 SLP138 P0000 60000 T03110200 55008
KGPM 
16nm E 
142050Z 30008KT 10SM SKC 33/21 A2998
KCPT 
17nm S 
142055Z AUTO 00000KT 4SM TS FEW002 FEW045 SCT060 26/24 A2997 RMK A01 LTG DSNT ALQDS
TAF
KNFW 
10nm NW 
1419/1515 VRB06KT 9999 VCTS SCT060CB BKN120 SCT250 QNH2988INS TEMPO 1420/1422 01012KT 9999 -TSRA BR BKN040CB BKN120 FM150000 04012KT 9999 FEW050 SCT250 QNH2988INS FM150800 VRB06KT 9999 FEW040 QNH2992INS T35/1421Z T25/1510Z AMD 1950 FN20046
KFTW 
12nm N 
141730Z 1418/1518 04005KT P6SM VCTS SCT040CB FM142300 09005KT P6SM SCT200
KGKY 
13nm E 
141730Z 1418/1518 VRB03KT P6SM VCTS SCT040CB FM142300 03003KT P6SM SCT180
NOTAMs
Click for the latest NOTAMs
NOTAMs are issued by the DoD/FAA and will open in a separate window not controlled by AirNav.

 

 
 

FBO, Fuel Providers, and Aircraft Ground Support

  
 Business Name 
 
 Contact 
 
 Services / Description 
 
Fuel Prices
 
Comments
  
A & W Aircraft 817-293-0510
no information available

If you are affiliated with A & W Aircraft and would like to show here your services, contact info, web link, logo, and more, click here
100LL
AS $4.20 
 Updated 02-Jun-2021
 
   write
AS=Assisted/Self Service
Update Fuel Prices
 

Would you like to see your business listed on this page?

 If your business provides an interesting product or service to pilots, flight crews, aircraft, or users of the Sycamore Strip Airport, you should consider listing it here.  To start the listing process, click on the button below
 
Add a business
 

Other Pages about Sycamore Strip Airport

Update a link
 
Copyright © AirNav, LLC. All rights reserved. Privacy Policy  Contact